sensor_id;sensor_type;location;lat;lon;timestamp;pressure;altitude;pressure_sealevel;temperature;humidity
41312;BME280;27061;41.648;24.568;2022-09-13T00:00:57;85740.50;;;14.03;57.39
41312;BME280;27061;41.648;24.568;2022-09-13T00:03:26;85752.81;;;14.10;57.94
41312;BME280;27061;41.648;24.568;2022-09-13T00:05:55;85750.72;;;14.10;58.04
41312;BME280;27061;41.648;24.568;2022-09-13T00:08:22;85752.81;;;14.10;58.07
41312;BME280;27061;41.648;24.568;2022-09-13T00:10:51;85740.09;;;13.92;57.95
41312;BME280;27061;41.648;24.568;2022-09-13T00:13:18;85763.81;;;14.16;57.37
41312;BME280;27061;41.648;24.568;2022-09-13T00:15:48;85737.91;;;13.68;57.75
41312;BME280;27061;41.648;24.568;2022-09-13T00:18:17;85754.84;;;13.86;57.95
41312;BME280;27061;41.648;24.568;2022-09-13T00:20:45;85751.94;;;13.90;58.31
41312;BME280;27061;41.648;24.568;2022-09-13T00:23:13;85753.22;;;13.96;57.63
41312;BME280;27061;41.648;24.568;2022-09-13T00:25:40;85728.63;;;13.77;58.29
41312;BME280;27061;41.648;24.568;2022-09-13T00:28:08;85720.63;;;13.65;58.20
41312;BME280;27061;41.648;24.568;2022-09-13T00:30:35;85738.09;;;13.88;57.93
41312;BME280;27061;41.648;24.568;2022-09-13T00:33:03;85742.44;;;13.81;58.18
41312;BME280;27061;41.648;24.568;2022-09-13T00:35:30;85705.13;;;13.45;58.90
41312;BME280;27061;41.648;24.568;2022-09-13T00:37:59;85735.03;;;13.72;59.25
41312;BME280;27061;41.648;24.568;2022-09-13T00:40:28;85745.22;;;13.81;58.52
41312;BME280;27061;41.648;24.568;2022-09-13T00:42:57;85743.09;;;13.84;58.66
41312;BME280;27061;41.648;24.568;2022-09-13T00:45:24;85740.13;;;13.63;59.19
41312;BME280;27061;41.648;24.568;2022-09-13T00:47:59;85741.25;;;13.74;58.36
41312;BME280;27061;41.648;24.568;2022-09-13T00:50:34;85735.91;;;13.66;58.42
41312;BME280;27061;41.648;24.568;2022-09-13T00:53:15;85744.28;;;13.64;58.56
41312;BME280;27061;41.648;24.568;2022-09-13T00:55:58;85735.31;;;13.62;59.10
41312;BME280;27061;41.648;24.568;2022-09-13T00:58:28;85738.81;;;13.60;59.80
41312;BME280;27061;41.648;24.568;2022-09-13T01:00:57;85709.38;;;13.42;59.15
41312;BME280;27061;41.648;24.568;2022-09-13T01:03:29;85735.22;;;13.37;58.94
41312;BME280;27061;41.648;24.568;2022-09-13T01:06:25;85729.59;;;13.39;59.66
41312;BME280;27061;41.648;24.568;2022-09-13T01:08:55;85738.53;;;13.43;58.89
41312;BME280;27061;41.648;24.568;2022-09-13T01:11:29;85732.13;;;13.49;59.08
41312;BME280;27061;41.648;24.568;2022-09-13T01:13:58;85715.03;;;13.38;59.20
41312;BME280;27061;41.648;24.568;2022-09-13T01:16:26;85738.44;;;13.47;59.14
41312;BME280;27061;41.648;24.568;2022-09-13T01:18:53;85728.00;;;13.48;58.17
41312;BME280;27061;41.648;24.568;2022-09-13T01:21:55;85741.94;;;13.46;59.04
41312;BME280;27061;41.648;24.568;2022-09-13T01:30:22;85746.03;;;13.49;59.15
41312;BME280;27061;41.648;24.568;2022-09-13T01:38:24;85704.69;;;13.35;58.18
41312;BME280;27061;41.648;24.568;2022-09-13T01:43:55;85714.50;;;13.59;57.96
41312;BME280;27061;41.648;24.568;2022-09-13T01:51:55;85703.16;;;13.40;58.58
41312;BME280;27061;41.648;24.568;2022-09-13T01:57:11;85673.28;;;13.11;57.92
41312;BME280;27061;41.648;24.568;2022-09-13T01:59:50;85681.38;;;13.22;57.57
41312;BME280;27061;41.648;24.568;2022-09-13T02:02:31;85700.59;;;13.32;57.51
41312;BME280;27061;41.648;24.568;2022-09-13T02:05:50;85672.19;;;12.98;58.25
41312;BME280;27061;41.648;24.568;2022-09-13T02:08:02;85705.09;;;13.18;58.36
41312;BME280;27061;41.648;24.568;2022-09-13T02:10:43;85710.69;;;13.16;58.04
41312;BME280;27061;41.648;24.568;2022-09-13T02:13:17;85680.00;;;12.92;58.31
41312;BME280;27061;41.648;24.568;2022-09-13T02:15:49;85713.59;;;13.10;58.16
41312;BME280;27061;41.648;24.568;2022-09-13T02:18:24;85709.44;;;13.09;58.00
41312;BME280;27061;41.648;24.568;2022-09-13T02:20:59;85706.72;;;13.07;58.02
41312;BME280;27061;41.648;24.568;2022-09-13T02:23:42;85705.97;;;13.09;57.41
41312;BME280;27061;41.648;24.568;2022-09-13T02:26:13;85704.09;;;13.01;57.50
41312;BME280;27061;41.648;24.568;2022-09-13T02:28:46;85714.47;;;13.03;57.59
41312;BME280;27061;41.648;24.568;2022-09-13T02:31:18;85668.69;;;12.71;57.72
41312;BME280;27061;41.648;24.568;2022-09-13T02:33:56;85705.59;;;12.96;57.97
41312;BME280;27061;41.648;24.568;2022-09-13T02:36:28;85695.88;;;12.95;58.01
41312;BME280;27061;41.648;24.568;2022-09-13T02:39:02;85674.63;;;12.83;57.27
41312;BME280;27061;41.648;24.568;2022-09-13T02:44:22;85698.13;;;12.89;57.66
41312;BME280;27061;41.648;24.568;2022-09-13T02:47:08;85701.59;;;12.89;57.42
41312;BME280;27061;41.648;24.568;2022-09-13T02:58:29;85698.41;;;12.76;58.19
41312;BME280;27061;41.648;24.568;2022-09-13T03:00:58;85697.69;;;12.78;58.61
41312;BME280;27061;41.648;24.568;2022-09-13T03:03:26;85692.34;;;12.68;57.95
41312;BME280;27061;41.648;24.568;2022-09-13T03:05:54;85701.72;;;12.83;58.48
41312;BME280;27061;41.648;24.568;2022-09-13T03:08:22;85679.97;;;12.63;57.97
41312;BME280;27061;41.648;24.568;2022-09-13T03:11:15;85711.66;;;12.74;58.44
41312;BME280;27061;41.648;24.568;2022-09-13T03:16:51;85711.16;;;12.65;59.54
41312;BME280;27061;41.648;24.568;2022-09-13T03:19:39;85710.25;;;12.75;58.79
41312;BME280;27061;41.648;24.568;2022-09-13T03:25:02;85711.84;;;12.66;59.81
41312;BME280;27061;41.648;24.568;2022-09-13T03:30:21;85720.38;;;12.56;59.94
41312;BME280;27061;41.648;24.568;2022-09-13T03:33:09;85721.75;;;12.57;58.85
41312;BME280;27061;41.648;24.568;2022-09-13T03:35:45;85719.16;;;12.49;59.83
41312;BME280;27061;41.648;24.568;2022-09-13T03:38:18;85724.50;;;12.59;59.22
41312;BME280;27061;41.648;24.568;2022-09-13T03:40:52;85715.03;;;12.48;59.78
41312;BME280;27061;41.648;24.568;2022-09-13T03:43:30;85702.19;;;12.30;60.14
41312;BME280;27061;41.648;24.568;2022-09-13T03:46:08;85653.59;;;11.98;59.55
41312;BME280;27061;41.648;24.568;2022-09-13T03:48:39;85721.41;;;12.40;59.78
41312;BME280;27061;41.648;24.568;2022-09-13T03:51:09;85723.47;;;12.41;59.88
41312;BME280;27061;41.648;24.568;2022-09-13T03:54:15;85701.47;;;12.31;59.66
41312;BME280;27061;41.648;24.568;2022-09-13T03:56:43;85713.72;;;12.42;60.19
41312;BME280;27061;41.648;24.568;2022-09-13T03:59:11;85713.84;;;12.38;59.64
41312;BME280;27061;41.648;24.568;2022-09-13T04:01:38;85709.03;;;12.35;59.72
41312;BME280;27061;41.648;24.568;2022-09-13T04:04:05;85709.72;;;12.35;59.56
41312;BME280;27061;41.648;24.568;2022-09-13T04:06:34;85691.94;;;12.22;58.74
41312;BME280;27061;41.648;24.568;2022-09-13T04:09:01;85686.66;;;12.10;58.88
41312;BME280;27061;41.648;24.568;2022-09-13T04:11:30;85708.72;;;12.18;59.03
41312;BME280;27061;41.648;24.568;2022-09-13T04:13:58;85675.31;;;11.87;59.23
41312;BME280;27061;41.648;24.568;2022-09-13T04:16:27;85684.34;;;11.88;59.72
41312;BME280;27061;41.648;24.568;2022-09-13T04:18:54;85718.34;;;12.21;59.55
41312;BME280;27061;41.648;24.568;2022-09-13T04:21:22;85711.97;;;11.94;59.55
41312;BME280;27061;41.648;24.568;2022-09-13T04:23:50;85700.94;;;11.90;60.02
41312;BME280;27061;41.648;24.568;2022-09-13T04:26:18;85714.41;;;12.10;58.89
41312;BME280;27061;41.648;24.568;2022-09-13T04:28:45;85724.97;;;12.01;59.99
41312;BME280;27061;41.648;24.568;2022-09-13T04:31:13;85688.03;;;11.76;60.14
41312;BME280;27061;41.648;24.568;2022-09-13T04:33:40;85668.16;;;11.63;60.89
41312;BME280;27061;41.648;24.568;2022-09-13T04:36:09;85692.84;;;11.78;60.90
41312;BME280;27061;41.648;24.568;2022-09-13T04:38:36;85728.31;;;12.08;59.59
41312;BME280;27061;41.648;24.568;2022-09-13T04:41:05;85684.53;;;11.78;60.17
41312;BME280;27061;41.648;24.568;2022-09-13T04:43:32;85735.84;;;12.14;60.27
41312;BME280;27061;41.648;24.568;2022-09-13T04:46:01;85725.53;;;12.08;60.64
41312;BME280;27061;41.648;24.568;2022-09-13T04:48:28;85716.66;;;12.01;60.85
41312;BME280;27061;41.648;24.568;2022-09-13T04:51:03;85716.66;;;12.01;60.29
41312;BME280;27061;41.648;24.568;2022-09-13T04:53:33;85732.31;;;12.17;60.52
41312;BME280;27061;41.648;24.568;2022-09-13T04:56:05;85730.25;;;12.16;61.23
41312;BME280;27061;41.648;24.568;2022-09-13T04:58:34;85691.25;;;11.89;60.90
41312;BME280;27061;41.648;24.568;2022-09-13T05:01:06;85696.72;;;11.93;60.73
41312;BME280;27061;41.648;24.568;2022-09-13T05:03:35;85739.34;;;12.12;62.66
41312;BME280;27061;41.648;24.568;2022-09-13T05:06:07;85728.00;;;12.24;61.39
41312;BME280;27061;41.648;24.568;2022-09-13T05:08:36;85707.53;;;12.07;61.49
41312;BME280;27061;41.648;24.568;2022-09-13T05:11:05;85730.63;;;12.30;62.08
41312;BME280;27061;41.648;24.568;2022-09-13T05:13:33;85733.28;;;12.36;60.95
41312;BME280;27061;41.648;24.568;2022-09-13T05:16:03;85702.53;;;12.14;62.36
41312;BME280;27061;41.648;24.568;2022-09-13T05:18:35;85734.66;;;12.37;61.41
41312;BME280;27061;41.648;24.568;2022-09-13T05:21:09;85700.56;;;12.08;63.24
41312;BME280;27061;41.648;24.568;2022-09-13T05:23:36;85731.16;;;12.39;62.49
41312;BME280;27061;41.648;24.568;2022-09-13T05:26:05;85716.91;;;12.24;61.84
41312;BME280;27061;41.648;24.568;2022-09-13T05:28:34;85736.03;;;12.38;61.27
41312;BME280;27061;41.648;24.568;2022-09-13T05:31:16;85729.09;;;12.39;62.37
41312;BME280;27061;41.648;24.568;2022-09-13T05:33:45;85733.78;;;12.47;60.77
41312;BME280;27061;41.648;24.568;2022-09-13T05:36:14;85741.31;;;12.51;62.16
41312;BME280;27061;41.648;24.568;2022-09-13T05:38:41;85701.69;;;12.21;64.30
41312;BME280;27061;41.648;24.568;2022-09-13T05:41:10;85727.56;;;12.44;63.08
41312;BME280;27061;41.648;24.568;2022-09-13T05:43:37;85722.00;;;12.44;62.85
41312;BME280;27061;41.648;24.568;2022-09-13T05:46:17;85738.41;;;12.57;65.57
41312;BME280;27061;41.648;24.568;2022-09-13T05:48:46;85737.47;;;12.68;61.09
41312;BME280;27061;41.648;24.568;2022-09-13T05:51:19;85740.25;;;12.68;62.66
41312;BME280;27061;41.648;24.568;2022-09-13T05:53:49;85712.34;;;12.41;63.14
41312;BME280;27061;41.648;24.568;2022-09-13T05:56:20;85733.91;;;12.72;62.30
41312;BME280;27061;41.648;24.568;2022-09-13T05:58:50;85738.25;;;12.65;61.80
41312;BME280;27061;41.648;24.568;2022-09-13T06:01:20;85719.16;;;12.49;61.35
41312;BME280;27061;41.648;24.568;2022-09-13T06:03:50;85703.41;;;12.39;62.12
41312;BME280;27061;41.648;24.568;2022-09-13T06:06:19;85703.91;;;12.48;61.26
41312;BME280;27061;41.648;24.568;2022-09-13T06:08:47;85738.00;;;12.75;60.87
41312;BME280;27061;41.648;24.568;2022-09-13T06:11:15;85714.69;;;12.62;59.88
41312;BME280;27061;41.648;24.568;2022-09-13T06:13:43;85688.84;;;12.38;60.84
41312;BME280;27061;41.648;24.568;2022-09-13T06:16:12;85727.50;;;12.49;60.43
41312;BME280;27061;41.648;24.568;2022-09-13T06:18:41;85713.53;;;12.51;62.33
41312;BME280;27061;41.648;24.568;2022-09-13T06:21:13;85746.28;;;12.79;61.05
41312;BME280;27061;41.648;24.568;2022-09-13T06:23:52;85726.38;;;12.68;61.81
41312;BME280;27061;41.648;24.568;2022-09-13T06:26:25;85739.91;;;12.82;63.12
41312;BME280;27061;41.648;24.568;2022-09-13T06:28:55;85760.50;;;12.94;62.63
41312;BME280;27061;41.648;24.568;2022-09-13T06:31:26;85750.00;;;12.98;59.82
41312;BME280;27061;41.648;24.568;2022-09-13T06:33:58;85719.66;;;12.88;59.16
41312;BME280;27061;41.648;24.568;2022-09-13T06:36:26;85718.38;;;12.83;61.08
41312;BME280;27061;41.648;24.568;2022-09-13T06:38:54;85752.47;;;13.12;63.16
41312;BME280;27061;41.648;24.568;2022-09-13T06:41:23;85728.94;;;13.07;61.38
41312;BME280;27061;41.648;24.568;2022-09-13T06:43:56;85756.41;;;13.24;62.18
41312;BME280;27061;41.648;24.568;2022-09-13T06:46:29;85737.13;;;13.15;57.80
41312;BME280;27061;41.648;24.568;2022-09-13T06:49:03;85736.97;;;13.22;57.77
41312;BME280;27061;41.648;24.568;2022-09-13T06:51:33;85762.72;;;13.49;59.81
41312;BME280;27061;41.648;24.568;2022-09-13T06:54:01;85768.00;;;13.61;60.47
41312;BME280;27061;41.648;24.568;2022-09-13T06:56:36;85742.69;;;13.44;58.84
41312;BME280;27061;41.648;24.568;2022-09-13T06:59:06;85757.97;;;13.45;56.82
41312;BME280;27061;41.648;24.568;2022-09-13T07:01:40;85750.34;;;13.44;56.11
41312;BME280;27061;41.648;24.568;2022-09-13T07:04:12;85752.56;;;13.37;56.58
41312;BME280;27061;41.648;24.568;2022-09-13T07:06:43;85749.03;;;13.41;57.50
41312;BME280;27061;41.648;24.568;2022-09-13T07:09:14;85771.91;;;13.72;58.62
41312;BME280;27061;41.648;24.568;2022-09-13T07:11:45;85696.78;;;13.16;59.42
41312;BME280;27061;41.648;24.568;2022-09-13T07:14:15;85692.00;;;13.13;58.03
41312;BME280;27061;41.648;24.568;2022-09-13T07:16:44;85776.81;;;13.70;56.52
41312;BME280;27061;41.648;24.568;2022-09-13T07:19:15;85766.31;;;13.72;57.12
41312;BME280;27061;41.648;24.568;2022-09-13T07:21:44;85787.97;;;13.97;59.02
41312;BME280;27061;41.648;24.568;2022-09-13T07:24:12;85780.94;;;14.00;56.01
41312;BME280;27061;41.648;24.568;2022-09-13T07:26:41;85742.72;;;13.71;54.55
41312;BME280;27061;41.648;24.568;2022-09-13T07:29:11;85773.06;;;14.08;57.95
41312;BME280;27061;41.648;24.568;2022-09-13T07:31:43;85785.81;;;14.26;58.45
41312;BME280;27061;41.648;24.568;2022-09-13T07:34:13;85773.47;;;14.19;55.68
41312;BME280;27061;41.648;24.568;2022-09-13T07:36:43;85788.34;;;14.36;57.16
41312;BME280;27061;41.648;24.568;2022-09-13T07:39:14;85765.91;;;14.15;54.40
41312;BME280;27061;41.648;24.568;2022-09-13T07:41:49;85754.41;;;14.03;52.87
41312;BME280;27061;41.648;24.568;2022-09-13T07:44:17;85787.41;;;14.19;53.03
41312;BME280;27061;41.648;24.568;2022-09-13T07:46:45;85788.44;;;14.32;55.29
41312;BME280;27061;41.648;24.568;2022-09-13T07:49:17;85777.88;;;14.10;53.47
41312;BME280;27061;41.648;24.568;2022-09-13T07:51:46;85751.25;;;14.17;55.08
41312;BME280;27061;41.648;24.568;2022-09-13T07:54:18;85792.22;;;14.47;54.43
41312;BME280;27061;41.648;24.568;2022-09-13T07:56:47;85764.63;;;14.37;54.61
41312;BME280;27061;41.648;24.568;2022-09-13T07:59:16;85785.00;;;14.56;53.48
41312;BME280;27061;41.648;24.568;2022-09-13T08:01:49;85789.22;;;14.55;54.04
41312;BME280;27061;41.648;24.568;2022-09-13T08:04:19;85775.47;;;14.49;54.34
41312;BME280;27061;41.648;24.568;2022-09-13T08:06:50;85794.47;;;14.68;54.23
41312;BME280;27061;41.648;24.568;2022-09-13T08:09:19;85782.28;;;14.54;51.16
41312;BME280;27061;41.648;24.568;2022-09-13T08:11:48;85798.31;;;14.79;52.41
41312;BME280;27061;41.648;24.568;2022-09-13T08:14:19;85794.81;;;14.80;54.68
41312;BME280;27061;41.648;24.568;2022-09-13T08:16:49;85798.72;;;14.89;53.26
41312;BME280;27061;41.648;24.568;2022-09-13T08:19:17;85778.41;;;14.93;54.72
41312;BME280;27061;41.648;24.568;2022-09-13T08:21:46;85756.13;;;14.93;55.73
41312;BME280;27061;41.648;24.568;2022-09-13T08:24:19;85784.25;;;15.30;55.69
41312;BME280;27061;41.648;24.568;2022-09-13T08:26:48;85787.09;;;15.28;53.40
41312;BME280;27061;41.648;24.568;2022-09-13T08:29:18;85779.63;;;15.23;51.72
41312;BME280;27061;41.648;24.568;2022-09-13T08:31:46;85760.78;;;15.23;52.61
41312;BME280;27061;41.648;24.568;2022-09-13T08:34:14;85783.56;;;15.55;52.76
41312;BME280;27061;41.648;24.568;2022-09-13T08:36:43;85778.50;;;15.59;50.13
41312;BME280;27061;41.648;24.568;2022-09-13T08:39:11;85783.31;;;15.84;53.86
41312;BME280;27061;41.648;24.568;2022-09-13T08:44:30;85796.09;;;15.99;51.70
41312;BME280;27061;41.648;24.568;2022-09-13T08:47:21;85783.22;;;16.08;52.12
41312;BME280;27061;41.648;24.568;2022-09-13T08:50:01;85730.75;;;15.69;50.73
41312;BME280;27061;41.648;24.568;2022-09-13T08:52:47;85788.88;;;16.27;52.00
41312;BME280;27061;41.648;24.568;2022-09-13T08:55:27;85784.16;;;16.22;51.25
41312;BME280;27061;41.648;24.568;2022-09-13T08:58:28;85772.88;;;16.26;51.76
41312;BME280;27061;41.648;24.568;2022-09-13T09:01:17;85770.19;;;16.22;46.65
41312;BME280;27061;41.648;24.568;2022-09-13T09:04:15;85785.81;;;16.35;46.69
41312;BME280;27061;41.648;24.568;2022-09-13T09:09:42;85800.53;;;16.34;47.43
41312;BME280;27061;41.648;24.568;2022-09-13T09:12:17;85773.28;;;16.14;47.65
41312;BME280;27061;41.648;24.568;2022-09-13T09:15:02;85796.44;;;16.31;46.96
41312;BME280;27061;41.648;24.568;2022-09-13T09:17:59;85787.06;;;16.20;45.82
41312;BME280;27061;41.648;24.568;2022-09-13T09:20:49;85801.88;;;16.35;47.29
41312;BME280;27061;41.648;24.568;2022-09-13T09:23:24;85777.81;;;16.02;44.03
41312;BME280;27061;41.648;24.568;2022-09-13T09:25:56;85810.75;;;16.21;45.52
41312;BME280;27061;41.648;24.568;2022-09-13T09:28:28;85794.13;;;16.17;48.21
41312;BME280;27061;41.648;24.568;2022-09-13T09:31:01;85801.34;;;16.09;49.38
41312;BME280;27061;41.648;24.568;2022-09-13T09:38:55;85809.19;;;16.26;47.81
41312;BME280;27061;41.648;24.568;2022-09-13T09:41:34;85805.97;;;16.38;46.31
41312;BME280;27061;41.648;24.568;2022-09-13T09:46:43;85819.41;;;16.33;47.18
41312;BME280;27061;41.648;24.568;2022-09-13T09:49:40;85785.34;;;16.08;45.98
41312;BME280;27061;41.648;24.568;2022-09-13T09:55:33;85816.19;;;16.04;44.28
41312;BME280;27061;41.648;24.568;2022-09-13T09:58:04;85819.31;;;16.15;45.95
41312;BME280;27061;41.648;24.568;2022-09-13T10:00:35;85785.09;;;15.93;44.50
41312;BME280;27061;41.648;24.568;2022-09-13T10:03:14;85778.16;;;15.92;46.22
41312;BME280;27061;41.648;24.568;2022-09-13T10:05:44;85787.03;;;15.99;46.72
41312;BME280;27061;41.648;24.568;2022-09-13T10:08:27;85783.47;;;16.00;46.29
41312;BME280;27061;41.648;24.568;2022-09-13T10:10:56;85824.91;;;16.15;48.40
41312;BME280;27061;41.648;24.568;2022-09-13T10:13:27;85818.97;;;16.25;49.03
41312;BME280;27061;41.648;24.568;2022-09-13T10:16:03;85769.28;;;15.65;50.22
41312;BME280;27061;41.648;24.568;2022-09-13T10:18:32;85810.25;;;15.93;50.03
41312;BME280;27061;41.648;24.568;2022-09-13T10:23:46;85832.88;;;16.06;50.40
41312;BME280;27061;41.648;24.568;2022-09-13T10:26:19;85826.88;;;15.97;51.48
41312;BME280;27061;41.648;24.568;2022-09-13T10:29:04;85834.84;;;16.09;51.35
41312;BME280;27061;41.648;24.568;2022-09-13T10:31:43;85832.31;;;16.01;52.09
41312;BME280;27061;41.648;24.568;2022-09-13T10:34:22;85790.88;;;15.66;51.22
41312;BME280;27061;41.648;24.568;2022-09-13T10:37:20;85830.75;;;16.06;49.60
41312;BME280;27061;41.648;24.568;2022-09-13T10:40:16;85833.72;;;16.00;51.08
41312;BME280;27061;41.648;24.568;2022-09-13T10:42:51;85834.97;;;16.05;51.20
41312;BME280;27061;41.648;24.568;2022-09-13T10:45:23;85834.50;;;15.99;50.50
41312;BME280;27061;41.648;24.568;2022-09-13T10:48:23;85839.31;;;16.00;50.07
41312;BME280;27061;41.648;24.568;2022-09-13T10:51:20;85833.66;;;16.02;50.53
41312;BME280;27061;41.648;24.568;2022-09-13T10:54:22;85841.88;;;16.08;48.52
41312;BME280;27061;41.648;24.568;2022-09-13T10:56:51;85815.81;;;15.93;50.38
41312;BME280;27061;41.648;24.568;2022-09-13T10:59:26;85815.63;;;15.99;52.47
41312;BME280;27061;41.648;24.568;2022-09-13T11:02:13;85821.88;;;16.00;50.77
41312;BME280;27061;41.648;24.568;2022-09-13T11:22:26;85799.31;;;16.29;49.30
41312;BME280;27061;41.648;24.568;2022-09-13T11:25:21;85798.75;;;16.24;47.80
41312;BME280;27061;41.648;24.568;2022-09-13T11:47:58;85769.88;;;16.92;47.84
41312;BME280;27061;41.648;24.568;2022-09-13T11:53:32;85776.63;;;17.18;46.88
41312;BME280;27061;41.648;24.568;2022-09-13T11:56:09;85769.81;;;17.13;48.56
41312;BME280;27061;41.648;24.568;2022-09-13T12:01:53;85771.03;;;17.37;49.00
41312;BME280;27061;41.648;24.568;2022-09-13T12:05:35;85760.97;;;17.44;43.17
41312;BME280;27061;41.648;24.568;2022-09-13T12:08:03;85750.53;;;17.42;45.10
41312;BME280;27061;41.648;24.568;2022-09-13T12:13:35;85774.25;;;17.81;47.68
41312;BME280;27061;41.648;24.568;2022-09-13T12:16:10;85754.25;;;17.91;45.33
41312;BME280;27061;41.648;24.568;2022-09-13T12:18:43;85749.84;;;17.96;49.25
41312;BME280;27061;41.648;24.568;2022-09-13T12:21:21;85743.91;;;18.04;47.74
41312;BME280;27061;41.648;24.568;2022-09-13T12:31:40;85760.63;;;18.58;44.81
41312;BME280;27061;41.648;24.568;2022-09-13T12:34:14;85747.88;;;18.61;45.49
41312;BME280;27061;41.648;24.568;2022-09-13T12:37:06;85766.06;;;18.79;44.54
41312;BME280;27061;41.648;24.568;2022-09-13T12:43:01;85766.91;;;18.92;44.64
41312;BME280;27061;41.648;24.568;2022-09-13T13:05:31;85742.56;;;19.66;38.18
41312;BME280;27061;41.648;24.568;2022-09-13T13:08:27;85758.84;;;19.79;37.64
41312;BME280;27061;41.648;24.568;2022-09-13T13:13:43;85752.34;;;19.67;38.60
41312;BME280;27061;41.648;24.568;2022-09-13T13:18:59;85760.69;;;19.84;40.69
41312;BME280;27061;41.648;24.568;2022-09-13T13:21:37;85773.78;;;19.90;39.03
41312;BME280;27061;41.648;24.568;2022-09-13T13:29:17;85766.50;;;19.95;42.79
41312;BME280;27061;41.648;24.568;2022-09-13T13:34:43;85760.41;;;20.05;42.48
41312;BME280;27061;41.648;24.568;2022-09-13T13:39:46;85759.16;;;20.17;42.94
41312;BME280;27061;41.648;24.568;2022-09-13T14:19:33;85787.66;;;20.82;42.39
41312;BME280;27061;41.648;24.568;2022-09-13T14:22:24;85782.78;;;20.80;41.05
41312;BME280;27061;41.648;24.568;2022-09-13T14:24:55;85799.22;;;20.76;40.68
41312;BME280;27061;41.648;24.568;2022-09-13T14:27:28;85796.97;;;20.78;40.07
41312;BME280;27061;41.648;24.568;2022-09-13T14:30:00;85792.00;;;20.79;40.61
41312;BME280;27061;41.648;24.568;2022-09-13T14:32:39;85792.22;;;20.75;40.91
41312;BME280;27061;41.648;24.568;2022-09-13T14:35:29;85789.91;;;20.65;38.95
41312;BME280;27061;41.648;24.568;2022-09-13T14:40:38;85799.81;;;20.49;39.24
41312;BME280;27061;41.648;24.568;2022-09-13T14:43:18;85796.72;;;20.40;39.88
41312;BME280;27061;41.648;24.568;2022-09-13T14:45:49;85764.41;;;20.10;39.53
41312;BME280;27061;41.648;24.568;2022-09-13T14:48:49;85802.28;;;20.26;40.37
41312;BME280;27061;41.648;24.568;2022-09-13T14:51:20;85801.31;;;20.17;40.28
41312;BME280;27061;41.648;24.568;2022-09-13T14:53:53;85809.16;;;20.14;40.35
41312;BME280;27061;41.648;24.568;2022-09-13T14:56:31;85808.47;;;19.99;40.20
41312;BME280;27061;41.648;24.568;2022-09-13T14:59:04;85815.81;;;19.92;40.02
41312;BME280;27061;41.648;24.568;2022-09-13T15:01:38;85809.59;;;19.74;41.03
41312;BME280;27061;41.648;24.568;2022-09-13T15:04:05;85807.41;;;19.60;41.90
41312;BME280;27061;41.648;24.568;2022-09-13T15:06:36;85811.50;;;19.63;41.59
41312;BME280;27061;41.648;24.568;2022-09-13T15:22:15;85819.22;;;19.15;43.04
41312;BME280;27061;41.648;24.568;2022-09-13T15:24:53;85771.72;;;18.44;42.55
41312;BME280;27061;41.648;24.568;2022-09-13T15:30:01;85815.50;;;18.70;44.02
41312;BME280;27061;41.648;24.568;2022-09-13T15:32:42;85815.00;;;18.65;43.57
41312;BME280;27061;41.648;24.568;2022-09-13T15:35:22;85816.63;;;18.60;44.59
41312;BME280;27061;41.648;24.568;2022-09-13T15:38:13;85827.75;;;18.62;44.87
41312;BME280;27061;41.648;24.568;2022-09-13T15:40:47;85829.94;;;18.60;45.43
41312;BME280;27061;41.648;24.568;2022-09-13T15:43:24;85808.75;;;18.29;45.26
41312;BME280;27061;41.648;24.568;2022-09-13T15:45:51;85829.22;;;18.43;45.72
41312;BME280;27061;41.648;24.568;2022-09-13T15:48:27;85807.94;;;18.14;45.38
41312;BME280;27061;41.648;24.568;2022-09-13T15:51:21;85840.84;;;18.33;46.08
41312;BME280;27061;41.648;24.568;2022-09-13T15:53:50;85831.72;;;18.15;45.28
41312;BME280;27061;41.648;24.568;2022-09-13T15:56:53;85837.56;;;18.09;44.67
41312;BME280;27061;41.648;24.568;2022-09-13T15:59:17;85850.13;;;18.10;44.45
41312;BME280;27061;41.648;24.568;2022-09-13T16:01:46;85848.59;;;18.13;46.61
41312;BME280;27061;41.648;24.568;2022-09-13T16:04:15;85813.63;;;17.77;46.33
41312;BME280;27061;41.648;24.568;2022-09-13T16:06:42;85843.38;;;18.03;46.88
41312;BME280;27061;41.648;24.568;2022-09-13T16:09:22;85852.72;;;17.98;46.99
41312;BME280;27061;41.648;24.568;2022-09-13T16:11:51;85853.41;;;17.98;47.40
41312;BME280;27061;41.648;24.568;2022-09-13T16:14:18;85831.69;;;17.80;47.11
41312;BME280;27061;41.648;24.568;2022-09-13T16:16:46;85821.78;;;17.64;47.39
41312;BME280;27061;41.648;24.568;2022-09-13T16:19:17;85859.97;;;17.90;46.21
41312;BME280;27061;41.648;24.568;2022-09-13T16:21:47;85860.97;;;17.83;45.80
41312;BME280;27061;41.648;24.568;2022-09-13T16:24:15;85814.66;;;17.48;45.72
41312;BME280;27061;41.648;24.568;2022-09-13T16:26:43;85866.06;;;17.78;45.34
41312;BME280;27061;41.648;24.568;2022-09-13T16:29:11;85857.38;;;17.68;46.06
41312;BME280;27061;41.648;24.568;2022-09-13T16:31:40;85833.13;;;17.41;46.75
41312;BME280;27061;41.648;24.568;2022-09-13T16:34:08;85797.63;;;17.17;47.87
41312;BME280;27061;41.648;24.568;2022-09-13T16:36:36;85867.19;;;17.67;48.02
41312;BME280;27061;41.648;24.568;2022-09-13T16:39:03;85822.84;;;17.36;47.93
41312;BME280;27061;41.648;24.568;2022-09-13T16:41:31;85870.88;;;17.61;48.22
41312;BME280;27061;41.648;24.568;2022-09-13T16:43:58;85838.09;;;17.39;48.33
41312;BME280;27061;41.648;24.568;2022-09-13T16:46:28;85871.78;;;17.55;48.11
41312;BME280;27061;41.648;24.568;2022-09-13T16:48:57;85861.03;;;17.43;49.03
41312;BME280;27061;41.648;24.568;2022-09-13T16:51:25;85866.19;;;17.55;49.52
41312;BME280;27061;41.648;24.568;2022-09-13T16:53:53;85844.38;;;17.20;49.02
41312;BME280;27061;41.648;24.568;2022-09-13T16:56:23;85883.41;;;17.43;49.13